sensor_id;sensor_type;location;lat;lon;timestamp;pressure;altitude;pressure_sealevel;temperature;humidity
62634;BME280;48704;50.534;6.442;2023-04-22T00:02:03;94784.28;;;6.80;100.00
62634;BME280;48704;50.534;6.442;2023-04-22T00:04:29;94788.00;;;6.77;100.00
62634;BME280;48704;50.534;6.442;2023-04-22T00:06:54;94793.31;;;6.89;100.00
62634;BME280;48704;50.534;6.442;2023-04-22T00:09:20;94793.13;;;6.93;100.00
62634;BME280;48704;50.534;6.442;2023-04-22T00:11:45;94781.53;;;6.80;100.00
62634;BME280;48704;50.534;6.442;2023-04-22T00:14:10;94792.31;;;6.78;100.00
62634;BME280;48704;50.534;6.442;2023-04-22T00:16:36;94788.88;;;6.83;100.00
62634;BME280;48704;50.534;6.442;2023-04-22T00:19:01;94783.72;;;6.76;100.00
62634;BME280;48704;50.534;6.442;2023-04-22T00:21:26;94785.78;;;6.66;100.00
62634;BME280;48704;50.534;6.442;2023-04-22T00:23:52;94789.59;;;6.68;100.00
62634;BME280;48704;50.534;6.442;2023-04-22T00:26:18;94789.81;;;6.65;100.00
62634;BME280;48704;50.534;6.442;2023-04-22T00:28:43;94783.19;;;6.62;100.00
62634;BME280;48704;50.534;6.442;2023-04-22T00:31:08;94791.22;;;6.60;100.00
62634;BME280;48704;50.534;6.442;2023-04-22T00:33:33;94789.03;;;6.64;100.00
62634;BME280;48704;50.534;6.442;2023-04-22T00:35:59;94782.56;;;6.67;100.00
62634;BME280;48704;50.534;6.442;2023-04-22T00:38:24;94784.47;;;6.76;100.00
62634;BME280;48704;50.534;6.442;2023-04-22T00:40:49;94796.56;;;6.88;100.00
62634;BME280;48704;50.534;6.442;2023-04-22T00:43:15;94791.25;;;6.99;100.00
62634;BME280;48704;50.534;6.442;2023-04-22T00:45:41;94790.31;;;7.02;100.00
62634;BME280;48704;50.534;6.442;2023-04-22T00:48:07;94777.16;;;6.88;100.00
62634;BME280;48704;50.534;6.442;2023-04-22T00:50:32;94787.00;;;6.89;100.00
62634;BME280;48704;50.534;6.442;2023-04-22T00:52:57;94780.88;;;6.85;100.00
62634;BME280;48704;50.534;6.442;2023-04-22T00:55:23;94782.94;;;6.75;100.00
62634;BME280;48704;50.534;6.442;2023-04-22T00:57:49;94778.16;;;6.76;100.00
62634;BME280;48704;50.534;6.442;2023-04-22T01:00:16;94770.03;;;6.72;100.00
62634;BME280;48704;50.534;6.442;2023-04-22T01:02:41;94780.00;;;6.79;100.00
62634;BME280;48704;50.534;6.442;2023-04-22T01:05:07;94776.28;;;6.82;100.00
62634;BME280;48704;50.534;6.442;2023-04-22T01:07:34;94776.81;;;6.71;100.00
62634;BME280;48704;50.534;6.442;2023-04-22T01:09:59;94770.72;;;6.67;100.00
62634;BME280;48704;50.534;6.442;2023-04-22T01:12:25;94767.84;;;6.61;100.00
62634;BME280;48704;50.534;6.442;2023-04-22T01:14:50;94772.63;;;6.76;100.00
62634;BME280;48704;50.534;6.442;2023-04-22T01:17:16;94771.56;;;6.73;100.00
62634;BME280;48704;50.534;6.442;2023-04-22T01:19:43;94764.03;;;6.74;100.00
62634;BME280;48704;50.534;6.442;2023-04-22T01:22:12;94769.38;;;6.62;100.00
62634;BME280;48704;50.534;6.442;2023-04-22T01:24:38;94769.28;;;6.71;100.00
62634;BME280;48704;50.534;6.442;2023-04-22T01:27:03;94763.09;;;6.77;100.00
62634;BME280;48704;50.534;6.442;2023-04-22T01:29:29;94747.41;;;6.74;100.00
62634;BME280;48704;50.534;6.442;2023-04-22T01:31:54;94754.56;;;6.65;100.00
62634;BME280;48704;50.534;6.442;2023-04-22T01:34:20;94750.56;;;6.66;100.00
62634;BME280;48704;50.534;6.442;2023-04-22T01:36:46;94750.38;;;6.70;100.00
62634;BME280;48704;50.534;6.442;2023-04-22T01:39:12;94756.31;;;6.78;100.00
62634;BME280;48704;50.534;6.442;2023-04-22T01:41:37;94748.94;;;6.75;100.00
62634;BME280;48704;50.534;6.442;2023-04-22T01:44:02;94753.59;;;6.68;100.00
62634;BME280;48704;50.534;6.442;2023-04-22T01:46:28;94749.53;;;6.79;100.00
62634;BME280;48704;50.534;6.442;2023-04-22T01:48:54;94748.94;;;6.75;100.00
62634;BME280;48704;50.534;6.442;2023-04-22T01:51:19;94747.81;;;6.81;100.00
62634;BME280;48704;50.534;6.442;2023-04-22T01:53:45;94754.13;;;6.82;100.00
62634;BME280;48704;50.534;6.442;2023-04-22T01:56:11;94741.00;;;6.91;100.00
62634;BME280;48704;50.534;6.442;2023-04-22T01:58:38;94737.53;;;6.82;100.00
62634;BME280;48704;50.534;6.442;2023-04-22T02:01:03;94744.34;;;6.71;100.00
62634;BME280;48704;50.534;6.442;2023-04-22T02:03:28;94749.53;;;6.79;100.00
62634;BME280;48704;50.534;6.442;2023-04-22T02:05:53;94749.44;;;6.73;100.00
62634;BME280;48704;50.534;6.442;2023-04-22T02:08:19;94754.91;;;6.82;100.00
62634;BME280;48704;50.534;6.442;2023-04-22T02:10:44;94757.66;;;6.82;100.00
62634;BME280;48704;50.534;6.442;2023-04-22T02:13:09;94750.34;;;6.94;100.00
62634;BME280;48704;50.534;6.442;2023-04-22T02:15:34;94750.41;;;6.85;100.00
62634;BME280;48704;50.534;6.442;2023-04-22T02:18:00;94750.13;;;6.83;100.00
62634;BME280;48704;50.534;6.442;2023-04-22T02:20:26;94744.34;;;6.71;100.00
62634;BME280;48704;50.534;6.442;2023-04-22T02:22:51;94743.06;;;6.82;100.00
62634;BME280;48704;50.534;6.442;2023-04-22T02:25:17;94742.13;;;6.85;100.00
62634;BME280;48704;50.534;6.442;2023-04-22T02:27:42;94746.41;;;6.86;100.00
62634;BME280;48704;50.534;6.442;2023-04-22T02:30:08;94743.47;;;6.89;100.00
62634;BME280;48704;50.534;6.442;2023-04-22T02:32:33;94731.22;;;6.81;100.00
62634;BME280;48704;50.534;6.442;2023-04-22T02:35:01;94740.91;;;6.62;100.00
62634;BME280;48704;50.534;6.442;2023-04-22T02:37:27;94732.38;;;6.89;100.00
62634;BME280;48704;50.534;6.442;2023-04-22T02:39:52;94726.09;;;6.89;100.00
62634;BME280;48704;50.534;6.442;2023-04-22T02:42:17;94736.78;;;6.96;100.00
62634;BME280;48704;50.534;6.442;2023-04-22T02:44:43;94741.38;;;6.99;100.00
62634;BME280;48704;50.534;6.442;2023-04-22T02:47:08;94733.38;;;7.01;100.00
62634;BME280;48704;50.534;6.442;2023-04-22T02:49:33;94731.41;;;6.78;100.00
62634;BME280;48704;50.534;6.442;2023-04-22T02:51:58;94730.09;;;6.88;100.00
62634;BME280;48704;50.534;6.442;2023-04-22T02:54:24;94734.69;;;6.91;100.00
62634;BME280;48704;50.534;6.442;2023-04-22T02:56:49;94738.91;;;7.01;100.00
62634;BME280;48704;50.534;6.442;2023-04-22T02:59:15;94738.03;;;6.95;100.00
62634;BME280;48704;50.534;6.442;2023-04-22T03:01:40;94744.28;;;7.19;100.00
62634;BME280;48704;50.534;6.442;2023-04-22T03:04:05;94742.75;;;7.18;100.00
62634;BME280;48704;50.534;6.442;2023-04-22T03:06:30;94739.69;;;7.16;100.00
62634;BME280;48704;50.534;6.442;2023-04-22T03:08:56;94729.84;;;7.15;100.00
62634;BME280;48704;50.534;6.442;2023-04-22T03:11:22;94725.72;;;7.11;100.00
62634;BME280;48704;50.534;6.442;2023-04-22T03:13:47;94719.13;;;7.08;100.00
62634;BME280;48704;50.534;6.442;2023-04-22T03:16:12;94722.91;;;6.81;100.00
62634;BME280;48704;50.534;6.442;2023-04-22T03:18:37;94720.50;;;6.74;100.00
62634;BME280;48704;50.534;6.442;2023-04-22T03:21:03;94717.34;;;6.66;100.00
62634;BME280;48704;50.534;6.442;2023-04-22T03:23:28;94718.38;;;6.69;100.00
62634;BME280;48704;50.534;6.442;2023-04-22T03:25:53;94723.25;;;6.98;100.00
62634;BME280;48704;50.534;6.442;2023-04-22T03:28:19;94717.59;;;6.92;100.00
62634;BME280;48704;50.534;6.442;2023-04-22T03:30:44;94709.94;;;6.87;100.00
62634;BME280;48704;50.534;6.442;2023-04-22T03:33:10;94707.34;;;6.84;100.00
62634;BME280;48704;50.534;6.442;2023-04-22T03:35:35;94697.91;;;6.90;100.00
62634;BME280;48704;50.534;6.442;2023-04-22T03:38:00;94694.38;;;6.90;100.00
62634;BME280;48704;50.534;6.442;2023-04-22T03:40:26;94702.41;;;6.88;100.00
62634;BME280;48704;50.534;6.442;2023-04-22T03:42:51;94692.19;;;6.94;100.00
62634;BME280;48704;50.534;6.442;2023-04-22T03:45:16;94694.00;;;6.97;100.00
62634;BME280;48704;50.534;6.442;2023-04-22T03:47:42;94691.34;;;7.02;100.00
62634;BME280;48704;50.534;6.442;2023-04-22T03:50:07;94688.19;;;6.95;100.00
62634;BME280;48704;50.534;6.442;2023-04-22T03:52:33;94686.56;;;7.03;100.00
62634;BME280;48704;50.534;6.442;2023-04-22T03:54:58;94686.28;;;7.16;100.00
62634;BME280;48704;50.534;6.442;2023-04-22T03:57:23;94684.28;;;7.16;100.00
62634;BME280;48704;50.534;6.442;2023-04-22T03:59:48;94681.78;;;7.18;100.00
62634;BME280;48704;50.534;6.442;2023-04-22T04:02:14;94685.41;;;7.24;100.00
62634;BME280;48704;50.534;6.442;2023-04-22T04:04:39;94680.25;;;7.17;100.00
62634;BME280;48704;50.534;6.442;2023-04-22T04:07:06;94683.59;;;7.21;100.00
62634;BME280;48704;50.534;6.442;2023-04-22T04:09:31;94683.88;;;7.09;100.00
62634;BME280;48704;50.534;6.442;2023-04-22T04:11:56;94681.41;;;7.25;100.00
62634;BME280;48704;50.534;6.442;2023-04-22T04:14:22;94690.97;;;7.24;100.00
62634;BME280;48704;50.534;6.442;2023-04-22T04:16:47;94692.69;;;7.22;100.00
62634;BME280;48704;50.534;6.442;2023-04-22T04:19:12;94686.56;;;7.32;100.00
62634;BME280;48704;50.534;6.442;2023-04-22T04:21:37;94683.81;;;7.32;100.00
62634;BME280;48704;50.534;6.442;2023-04-22T04:24:05;94681.50;;;7.31;100.00
62634;BME280;48704;50.534;6.442;2023-04-22T04:26:30;94681.97;;;7.29;100.00
62634;BME280;48704;50.534;6.442;2023-04-22T04:28:56;94680.06;;;7.35;100.00
62634;BME280;48704;50.534;6.442;2023-04-22T04:31:22;94678.94;;;7.42;100.00
62634;BME280;48704;50.534;6.442;2023-04-22T04:33:48;94677.59;;;7.37;100.00
62634;BME280;48704;50.534;6.442;2023-04-22T04:36:14;94676.41;;;7.44;100.00
62634;BME280;48704;50.534;6.442;2023-04-22T04:38:39;94677.75;;;7.49;100.00
62634;BME280;48704;50.534;6.442;2023-04-22T04:41:04;94677.00;;;7.33;100.00
62634;BME280;48704;50.534;6.442;2023-04-22T04:43:32;94671.47;;;7.33;100.00
62634;BME280;48704;50.534;6.442;2023-04-22T04:45:57;94671.63;;;7.45;100.00
62634;BME280;48704;50.534;6.442;2023-04-22T04:48:23;94667.25;;;7.23;100.00
62634;BME280;48704;50.534;6.442;2023-04-22T04:50:51;94673.38;;;7.27;100.00
62634;BME280;48704;50.534;6.442;2023-04-22T04:53:19;94672.63;;;7.42;100.00
62634;BME280;48704;50.534;6.442;2023-04-22T04:55:45;94666.66;;;7.49;100.00
62634;BME280;48704;50.534;6.442;2023-04-22T04:58:10;94666.31;;;7.41;100.00
62634;BME280;48704;50.534;6.442;2023-04-22T05:00:35;94675.28;;;7.36;100.00
62634;BME280;48704;50.534;6.442;2023-04-22T05:03:01;94676.06;;;7.36;100.00
62634;BME280;48704;50.534;6.442;2023-04-22T05:05:27;94672.81;;;7.23;100.00
62634;BME280;48704;50.534;6.442;2023-04-22T05:07:53;94675.88;;;7.25;100.00
62634;BME280;48704;50.534;6.442;2023-04-22T05:10:18;94681.59;;;7.22;100.00
62634;BME280;48704;50.534;6.442;2023-04-22T05:12:44;94678.53;;;7.34;100.00
62634;BME280;48704;50.534;6.442;2023-04-22T05:15:11;94679.13;;;7.38;100.00
62634;BME280;48704;50.534;6.442;2023-04-22T05:17:37;94674.13;;;7.43;100.00
62634;BME280;48704;50.534;6.442;2023-04-22T05:20:03;94676.06;;;7.22;100.00
62634;BME280;48704;50.534;6.442;2023-04-22T05:22:28;94677.69;;;7.28;100.00
62634;BME280;48704;50.534;6.442;2023-04-22T05:24:54;94684.66;;;7.38;100.00
62634;BME280;48704;50.534;6.442;2023-04-22T05:27:19;94682.28;;;7.31;100.00
62634;BME280;48704;50.534;6.442;2023-04-22T05:29:44;94687.72;;;7.26;100.00
62634;BME280;48704;50.534;6.442;2023-04-22T05:32:09;94686.75;;;7.29;100.00
62634;BME280;48704;50.534;6.442;2023-04-22T05:34:35;94685.59;;;7.21;100.00
62634;BME280;48704;50.534;6.442;2023-04-22T05:37:03;94682.94;;;7.26;100.00
62634;BME280;48704;50.534;6.442;2023-04-22T05:39:29;94682.72;;;7.45;100.00
62634;BME280;48704;50.534;6.442;2023-04-22T05:41:54;94684.25;;;7.46;100.00
62634;BME280;48704;50.534;6.442;2023-04-22T05:44:20;94678.91;;;7.57;100.00
62634;BME280;48704;50.534;6.442;2023-04-22T05:46:45;94684.81;;;7.50;100.00
62634;BME280;48704;50.534;6.442;2023-04-22T05:49:11;94684.06;;;7.64;100.00
62634;BME280;48704;50.534;6.442;2023-04-22T05:51:36;94674.88;;;7.58;100.00
62634;BME280;48704;50.534;6.442;2023-04-22T05:54:01;94677.53;;;7.67;100.00
62634;BME280;48704;50.534;6.442;2023-04-22T05:56:27;94692.25;;;7.73;100.00
62634;BME280;48704;50.534;6.442;2023-04-22T05:58:52;94691.16;;;7.85;100.00
62634;BME280;48704;50.534;6.442;2023-04-22T06:01:17;94693.53;;;7.92;100.00
62634;BME280;48704;50.534;6.442;2023-04-22T06:03:42;94691.44;;;7.87;100.00
62634;BME280;48704;50.534;6.442;2023-04-22T06:06:08;94689.53;;;7.93;100.00
62634;BME280;48704;50.534;6.442;2023-04-22T06:08:33;94688.16;;;8.03;100.00
62634;BME280;48704;50.534;6.442;2023-04-22T06:10:58;94690.13;;;7.83;100.00
62634;BME280;48704;50.534;6.442;2023-04-22T06:13:24;94691.16;;;7.85;100.00
62634;BME280;48704;50.534;6.442;2023-04-22T06:15:49;94693.19;;;7.85;100.00
62634;BME280;48704;50.534;6.442;2023-04-22T06:18:15;94688.06;;;8.13;100.00
62634;BME280;48704;50.534;6.442;2023-04-22T06:20:40;94690.25;;;8.09;100.00
62634;BME280;48704;50.534;6.442;2023-04-22T06:23:05;94687.13;;;8.21;100.00
62634;BME280;48704;50.534;6.442;2023-04-22T06:25:31;94678.69;;;8.30;100.00
62634;BME280;48704;50.534;6.442;2023-04-22T06:27:59;94685.31;;;8.53;100.00
62634;BME280;48704;50.534;6.442;2023-04-22T06:30:26;94686.00;;;8.68;100.00
62634;BME280;48704;50.534;6.442;2023-04-22T06:32:51;94677.41;;;8.92;100.00
62634;BME280;48704;50.534;6.442;2023-04-22T06:35:17;94675.47;;;8.98;100.00
62634;BME280;48704;50.534;6.442;2023-04-22T06:37:43;94681.47;;;9.17;100.00
62634;BME280;48704;50.534;6.442;2023-04-22T06:40:09;94677.53;;;9.29;100.00
62634;BME280;48704;50.534;6.442;2023-04-22T06:42:34;94675.00;;;9.31;100.00
62634;BME280;48704;50.534;6.442;2023-04-22T06:45:00;94678.78;;;9.28;100.00
62634;BME280;48704;50.534;6.442;2023-04-22T06:47:25;94678.94;;;9.45;100.00
62634;BME280;48704;50.534;6.442;2023-04-22T06:49:50;94674.13;;;9.46;100.00
62634;BME280;48704;50.534;6.442;2023-04-22T06:52:15;94676.66;;;9.44;100.00
62634;BME280;48704;50.534;6.442;2023-04-22T06:54:42;94679.84;;;9.62;100.00
62634;BME280;48704;50.534;6.442;2023-04-22T06:57:07;94679.44;;;9.75;100.00
62634;BME280;48704;50.534;6.442;2023-04-22T06:59:32;94678.22;;;9.82;100.00
62634;BME280;48704;50.534;6.442;2023-04-22T07:01:58;94677.53;;;9.92;100.00
62634;BME280;48704;50.534;6.442;2023-04-22T07:04:23;94680.66;;;10.05;100.00
62634;BME280;48704;50.534;6.442;2023-04-22T07:06:48;94686.09;;;10.20;100.00
62634;BME280;48704;50.534;6.442;2023-04-22T07:09:14;94671.25;;;10.40;100.00
62634;BME280;48704;50.534;6.442;2023-04-22T07:11:39;94672.03;;;10.46;100.00
62634;BME280;48704;50.534;6.442;2023-04-22T07:14:04;94675.16;;;10.59;100.00
62634;BME280;48704;50.534;6.442;2023-04-22T07:16:30;94658.22;;;10.68;100.00
62634;BME280;48704;50.534;6.442;2023-04-22T07:18:55;94666.34;;;10.78;100.00
62634;BME280;48704;50.534;6.442;2023-04-22T07:21:20;94663.56;;;10.83;100.00
62634;BME280;48704;50.534;6.442;2023-04-22T07:23:45;94670.47;;;10.99;100.00
62634;BME280;48704;50.534;6.442;2023-04-22T07:26:11;94668.25;;;11.25;100.00
62634;BME280;48704;50.534;6.442;2023-04-22T07:28:36;94666.47;;;11.33;100.00
62634;BME280;48704;50.534;6.442;2023-04-22T07:31:02;94672.09;;;11.45;100.00
62634;BME280;48704;50.534;6.442;2023-04-22T07:33:27;94671.81;;;11.54;100.00
62634;BME280;48704;50.534;6.442;2023-04-22T07:35:52;94669.03;;;11.76;100.00
62634;BME280;48704;50.534;6.442;2023-04-22T07:38:18;94660.91;;;12.00;100.00
62634;BME280;48704;50.534;6.442;2023-04-22T07:40:43;94662.19;;;12.11;100.00
62634;BME280;48704;50.534;6.442;2023-04-22T07:43:08;94655.09;;;11.76;100.00
62634;BME280;48704;50.534;6.442;2023-04-22T07:45:33;94664.75;;;11.81;100.00
62634;BME280;48704;50.534;6.442;2023-04-22T07:47:59;94667.00;;;11.71;100.00
62634;BME280;48704;50.534;6.442;2023-04-22T07:50:24;94658.88;;;11.62;100.00
62634;BME280;48704;50.534;6.442;2023-04-22T07:52:49;94651.53;;;11.59;100.00
62634;BME280;48704;50.534;6.442;2023-04-22T07:55:15;94651.28;;;11.57;100.00
62634;BME280;48704;50.534;6.442;2023-04-22T07:57:40;94647.97;;;11.53;100.00
62634;BME280;48704;50.534;6.442;2023-04-22T08:00:06;94642.16;;;11.73;100.00
62634;BME280;48704;50.534;6.442;2023-04-22T08:02:32;94639.13;;;11.82;100.00
62634;BME280;48704;50.534;6.442;2023-04-22T08:04:58;94642.91;;;11.96;100.00
62634;BME280;48704;50.534;6.442;2023-04-22T08:07:23;94646.19;;;12.05;100.00
62634;BME280;48704;50.534;6.442;2023-04-22T08:09:49;94645.94;;;12.09;100.00
62634;BME280;48704;50.534;6.442;2023-04-22T08:12:14;94646.97;;;12.00;100.00
62634;BME280;48704;50.534;6.442;2023-04-22T08:14:39;94644.66;;;12.04;100.00
62634;BME280;48704;50.534;6.442;2023-04-22T08:17:05;94644.16;;;12.06;100.00
62634;BME280;48704;50.534;6.442;2023-04-22T08:19:30;94641.63;;;12.14;100.00
62634;BME280;48704;50.534;6.442;2023-04-22T08:21:55;94636.53;;;12.23;100.00
62634;BME280;48704;50.534;6.442;2023-04-22T08:24:22;94637.56;;;12.15;100.00
62634;BME280;48704;50.534;6.442;2023-04-22T08:26:47;94643.09;;;12.26;100.00
62634;BME280;48704;50.534;6.442;2023-04-22T08:29:12;94641.53;;;12.36;100.00
62634;BME280;48704;50.534;6.442;2023-04-22T08:31:38;94643.31;;;12.39;100.00
62634;BME280;48704;50.534;6.442;2023-04-22T08:34:03;94639.75;;;12.44;100.00
62634;BME280;48704;50.534;6.442;2023-04-22T08:36:29;94648.38;;;12.52;100.00
62634;BME280;48704;50.534;6.442;2023-04-22T08:38:55;94639.72;;;12.55;100.00
62634;BME280;48704;50.534;6.442;2023-04-22T08:41:21;94638.72;;;12.42;100.00
62634;BME280;48704;50.534;6.442;2023-04-22T08:43:48;94634.38;;;12.57;100.00
62634;BME280;48704;50.534;6.442;2023-04-22T08:46:14;94631.75;;;12.70;100.00
62634;BME280;48704;50.534;6.442;2023-04-22T08:48:39;94638.81;;;12.83;100.00
62634;BME280;48704;50.534;6.442;2023-04-22T08:51:05;94638.81;;;12.83;100.00
62634;BME280;48704;50.534;6.442;2023-04-22T08:53:32;94628.13;;;12.87;100.00
62634;BME280;48704;50.534;6.442;2023-04-22T08:55:58;94626.84;;;12.93;100.00
62634;BME280;48704;50.534;6.442;2023-04-22T08:58:24;94626.63;;;12.86;100.00
62634;BME280;48704;50.534;6.442;2023-04-22T09:00:49;94629.41;;;12.86;100.00
62634;BME280;48704;50.534;6.442;2023-04-22T09:03:15;94618.78;;;13.25;100.00
62634;BME280;48704;50.534;6.442;2023-04-22T09:05:41;94627.09;;;13.36;100.00
62634;BME280;48704;50.534;6.442;2023-04-22T09:08:08;94631.25;;;13.60;100.00
62634;BME280;48704;50.534;6.442;2023-04-22T09:10:37;94627.53;;;13.76;100.00
62634;BME280;48704;50.534;6.442;2023-04-22T09:13:04;94625.22;;;13.80;100.00
62634;BME280;48704;50.534;6.442;2023-04-22T09:15:30;94630.94;;;13.93;100.00
62634;BME280;48704;50.534;6.442;2023-04-22T09:17:56;94625.34;;;13.93;100.00
62634;BME280;48704;50.534;6.442;2023-04-22T09:20:27;94624.63;;;13.87;100.00
62634;BME280;48704;50.534;6.442;2023-04-22T09:22:54;94636.69;;;13.77;100.00
62634;BME280;48704;50.534;6.442;2023-04-22T09:25:21;94645.72;;;13.64;100.00
62634;BME280;48704;50.534;6.442;2023-04-22T09:27:48;94643.22;;;14.15;100.00
62634;BME280;48704;50.534;6.442;2023-04-22T09:30:16;94654.03;;;14.05;100.00
62634;BME280;48704;50.534;6.442;2023-04-22T09:32:50;94657.81;;;14.32;100.00
62634;BME280;48704;50.534;6.442;2023-04-22T09:35:22;94640.69;;;14.41;100.00
62634;BME280;48704;50.534;6.442;2023-04-22T09:37:50;94650.09;;;14.14;100.00
62634;BME280;48704;50.534;6.442;2023-04-22T09:40:17;94667.78;;;14.03;100.00
62634;BME280;48704;50.534;6.442;2023-04-22T09:42:50;94645.19;;;13.95;100.00
62634;BME280;48704;50.534;6.442;2023-04-22T09:45:36;94674.16;;;14.03;100.00
62634;BME280;48704;50.534;6.442;2023-04-22T09:48:12;94657.25;;;13.85;100.00
62634;BME280;48704;50.534;6.442;2023-04-22T09:50:39;94673.66;;;13.69;100.00
62634;BME280;48704;50.534;6.442;2023-04-22T09:53:08;94668.44;;;13.85;100.00
62634;BME280;48704;50.534;6.442;2023-04-22T09:55:37;94668.22;;;14.37;100.00
62634;BME280;48704;50.534;6.442;2023-04-22T09:58:09;94665.78;;;14.77;100.00
62634;BME280;48704;50.534;6.442;2023-04-22T10:00:39;94657.31;;;15.01;100.00
62634;BME280;48704;50.534;6.442;2023-04-22T10:03:04;94658.59;;;14.57;100.00
62634;BME280;48704;50.534;6.442;2023-04-22T10:05:31;94660.97;;;14.23;100.00
62634;BME280;48704;50.534;6.442;2023-04-22T10:07:57;94654.94;;;14.13;100.00
62634;BME280;48704;50.534;6.442;2023-04-22T10:10:23;94653.66;;;14.44;100.00
62634;BME280;48704;50.534;6.442;2023-04-22T10:12:49;94653.91;;;14.46;100.00
62634;BME280;48704;50.534;6.442;2023-04-22T10:15:14;94678.97;;;14.33;100.00
62634;BME280;48704;50.534;6.442;2023-04-22T10:17:40;94658.53;;;14.38;100.00
62634;BME280;48704;50.534;6.442;2023-04-22T10:20:10;94660.88;;;14.58;100.00
62634;BME280;48704;50.534;6.442;2023-04-22T10:22:38;94654.84;;;14.73;100.00
62634;BME280;48704;50.534;6.442;2023-04-22T10:25:05;94666.25;;;14.81;100.00
62634;BME280;48704;50.534;6.442;2023-04-22T10:27:34;94660.09;;;14.82;100.00
62634;BME280;48704;50.534;6.442;2023-04-22T10:30:00;94655.19;;;15.07;100.00
62634;BME280;48704;50.534;6.442;2023-04-22T10:32:26;94658.09;;;15.20;100.00
62634;BME280;48704;50.534;6.442;2023-04-22T10:35:09;94654.94;;;15.43;100.00
62634;BME280;48704;50.534;6.442;2023-04-22T10:37:35;94640.00;;;15.34;100.00
62634;BME280;48704;50.534;6.442;2023-04-22T10:40:14;94637.69;;;15.20;100.00
62634;BME280;48704;50.534;6.442;2023-04-22T10:42:42;94640.34;;;15.12;100.00
62634;BME280;48704;50.534;6.442;2023-04-22T10:45:14;94636.03;;;15.62;100.00
62634;BME280;48704;50.534;6.442;2023-04-22T10:47:40;94621.47;;;15.95;100.00
62634;BME280;48704;50.534;6.442;2023-04-22T10:52:39;94626.06;;;16.38;97.47
62634;BME280;48704;50.534;6.442;2023-04-22T10:55:05;94635.69;;;16.56;96.89
62634;BME280;48704;50.534;6.442;2023-04-22T10:57:34;94647.78;;;16.24;96.33
62634;BME280;48704;50.534;6.442;2023-04-22T11:03:05;94643.41;;;15.46;100.00
62634;BME280;48704;50.534;6.442;2023-04-22T11:05:32;94650.03;;;15.49;100.00
62634;BME280;48704;50.534;6.442;2023-04-22T11:08:18;94653.81;;;15.32;100.00
62634;BME280;48704;50.534;6.442;2023-04-22T11:10:49;94658.50;;;14.87;100.00
62634;BME280;48704;50.534;6.442;2023-04-22T11:13:19;94660.03;;;15.25;100.00
62634;BME280;48704;50.534;6.442;2023-04-22T11:15:47;94674.75;;;15.69;100.00
62634;BME280;48704;50.534;6.442;2023-04-22T11:18:16;94674.97;;;15.33;100.00
62634;BME280;48704;50.534;6.442;2023-04-22T11:20:42;94686.56;;;15.24;100.00
62634;BME280;48704;50.534;6.442;2023-04-22T11:23:08;94683.84;;;15.37;100.00
62634;BME280;48704;50.534;6.442;2023-04-22T11:25:33;94663.84;;;15.47;100.00
62634;BME280;48704;50.534;6.442;2023-04-22T11:27:58;94668.22;;;15.61;100.00
62634;BME280;48704;50.534;6.442;2023-04-22T11:30:25;94685.97;;;15.69;100.00
62634;BME280;48704;50.534;6.442;2023-04-22T11:32:53;94672.03;;;15.45;100.00
62634;BME280;48704;50.534;6.442;2023-04-22T11:35:24;94672.41;;;15.35;100.00
62634;BME280;48704;50.534;6.442;2023-04-22T11:37:54;94692.66;;;15.28;100.00
62634;BME280;48704;50.534;6.442;2023-04-22T11:40:25;94681.72;;;15.06;100.00
62634;BME280;48704;50.534;6.442;2023-04-22T11:42:51;94673.38;;;14.82;100.00
62634;BME280;48704;50.534;6.442;2023-04-22T11:45:16;94675.97;;;15.17;100.00
62634;BME280;48704;50.534;6.442;2023-04-22T11:47:42;94681.59;;;15.55;100.00
62634;BME280;48704;50.534;6.442;2023-04-22T11:50:11;94687.13;;;15.42;100.00
62634;BME280;48704;50.534;6.442;2023-04-22T11:52:52;94677.78;;;14.96;100.00
62634;BME280;48704;50.534;6.442;2023-04-22T11:58:06;94649.50;;;14.94;100.00
62634;BME280;48704;50.534;6.442;2023-04-22T12:00:34;94666.53;;;14.77;100.00
62634;BME280;48704;50.534;6.442;2023-04-22T12:03:07;94666.06;;;14.73;100.00
62634;BME280;48704;50.534;6.442;2023-04-22T12:05:39;94674.50;;;14.92;100.00
62634;BME280;48704;50.534;6.442;2023-04-22T12:08:08;94665.88;;;15.09;100.00
62634;BME280;48704;50.534;6.442;2023-04-22T12:10:41;94675.19;;;14.98;100.00
62634;BME280;48704;50.534;6.442;2023-04-22T12:13:07;94665.66;;;15.25;100.00
62634;BME280;48704;50.534;6.442;2023-04-22T12:15:40;94664.72;;;15.74;100.00
62634;BME280;48704;50.534;6.442;2023-04-22T12:18:06;94655.38;;;15.97;100.00
62634;BME280;48704;50.534;6.442;2023-04-22T12:20:33;94678.22;;;15.75;100.00
62634;BME280;48704;50.534;6.442;2023-04-22T12:22:58;94685.94;;;16.20;100.00
62634;BME280;48704;50.534;6.442;2023-04-22T12:25:23;94671.09;;;15.74;100.00
62634;BME280;48704;50.534;6.442;2023-04-22T12:27:49;94668.69;;;15.27;100.00
62634;BME280;48704;50.534;6.442;2023-04-22T12:30:15;94679.88;;;14.90;100.00
62634;BME280;48704;50.534;6.442;2023-04-22T12:32:40;94670.03;;;14.83;100.00
62634;BME280;48704;50.534;6.442;2023-04-22T12:35:05;94673.69;;;14.97;100.00
62634;BME280;48704;50.534;6.442;2023-04-22T12:37:32;94677.94;;;14.85;100.00
62634;BME280;48704;50.534;6.442;2023-04-22T12:39:58;94669.16;;;14.69;100.00
62634;BME280;48704;50.534;6.442;2023-04-22T12:42:23;94687.47;;;14.22;100.00
62634;BME280;48704;50.534;6.442;2023-04-22T12:44:48;94676.03;;;14.20;100.00
62634;BME280;48704;50.534;6.442;2023-04-22T12:47:13;94671.22;;;14.15;100.00
62634;BME280;48704;50.534;6.442;2023-04-22T12:49:41;94674.88;;;14.10;100.00
62634;BME280;48704;50.534;6.442;2023-04-22T12:52:08;94674.78;;;14.15;100.00
62634;BME280;48704;50.534;6.442;2023-04-22T12:54:33;94684.19;;;14.18;100.00
62634;BME280;48704;50.534;6.442;2023-04-22T12:56:59;94678.25;;;14.02;100.00
62634;BME280;48704;50.534;6.442;2023-04-22T12:59:25;94674.84;;;13.80;100.00